Time;durP1;ratioP1;P1;durP2;ratioP2;P2;SDS_P1;SDS_P2;PMS_P1;PMS_P2;Temp;Humidity;BMP_temperature;BMP_pressure;BME280_temperature;BME280_humidity;BME280_pressure;Samples;Min_cycle;Max_cycle;Signal;HPM_P1;HPM_P2
2023/07/14 00:01:50;;;;;;;5.12;2.90;;;;;;;19.30;100.00;98776.06;4485557;31;20093;-68
2023/07/14 00:04:38;;;;;;;3.80;2.70;;;;;;;19.36;100.00;98779.75;4484201;32;20385;-68
2023/07/14 00:07:12;;;;;;;7.40;3.17;;;;;;;19.38;100.00;98779.56;4484024;32;20096;-68
2023/07/14 00:09:42;;;;;;;5.85;3.00;;;;;;;19.25;100.00;98775.81;4484420;31;20170;-68
2023/07/14 00:12:09;;;;;;;7.18;2.87;;;;;;;19.28;100.00;98777.25;4485490;31;20096;-68
2023/07/14 00:14:36;;;;;;;3.65;2.80;;;;;;;19.27;100.00;98780.94;4485257;32;20549;-68
2023/07/14 00:17:08;;;;;;;4.78;3.10;;;;;;;19.26;100.00;98782.78;4485177;31;20084;-68
2023/07/14 00:19:35;;;;;;;3.87;3.00;;;;;;;19.28;100.00;98779.91;4484120;32;20088;-68
2023/07/14 00:22:10;;;;;;;3.70;2.85;;;;;;;19.23;100.00;98780.50;4485478;32;20092;-68
2023/07/14 00:24:37;;;;;;;4.47;3.08;;;;;;;19.29;100.00;98785.03;4485331;32;20100;-68
2023/07/14 00:27:20;;;;;;;5.43;3.33;;;;;;;19.22;100.00;98786.81;4485254;31;20143;-67
2023/07/14 00:29:47;;;;;;;7.80;2.95;;;;;;;19.25;100.00;98798.91;4484166;32;20156;-68
2023/07/14 00:32:17;;;;;;;4.97;2.90;;;;;;;19.29;100.00;98803.63;4485155;31;20427;-68
2023/07/14 00:34:44;;;;;;;4.25;2.70;;;;;;;19.26;100.00;98790.75;4485164;31;20153;-68
2023/07/14 00:37:12;;;;;;;5.95;3.40;;;;;;;19.28;100.00;98796.66;4485220;32;20196;-68
2023/07/14 00:39:40;;;;;;;5.28;3.40;;;;;;;19.28;100.00;98795.84;4485098;31;20075;-68
2023/07/14 00:42:11;;;;;;;4.68;2.70;;;;;;;19.17;100.00;98799.03;4485383;31;20122;-68
2023/07/14 00:44:41;;;;;;;5.37;2.90;;;;;;;19.18;100.00;98795.38;4484215;32;20418;-68
2023/07/14 00:47:27;;;;;;;7.28;3.53;;;;;;;19.09;100.00;98787.53;4483949;32;20159;-68
2023/07/14 00:49:55;;;;;;;5.30;3.15;;;;;;;19.10;100.00;98798.97;4484918;31;20136;-68
2023/07/14 00:52:35;;;;;;;4.53;2.97;;;;;;;19.06;100.00;98808.34;4459065;32;20096;-68
2023/07/14 00:55:24;;;;;;;3.83;2.72;;;;;;;19.03;100.00;98798.09;4468090;32;20105;-68
2023/07/14 00:57:53;;;;;;;4.55;2.67;;;;;;;19.02;100.00;98797.28;4451040;32;20184;-68
2023/07/14 01:00:26;;;;;;;8.25;3.15;;;;;;;18.96;100.00;98800.69;4438507;32;20459;-68
2023/07/14 01:02:53;;;;;;;4.87;2.90;;;;;;;18.94;100.00;98794.75;4451502;32;20132;-68
2023/07/14 01:05:20;;;;;;;6.10;3.80;;;;;;;18.89;100.00;98792.66;4450993;32;20476;-68
2023/07/14 01:07:50;;;;;;;5.05;3.65;;;;;;;18.88;100.00;98798.16;4451709;32;20636;-68
2023/07/14 01:10:22;;;;;;;3.80;3.12;;;;;;;18.83;100.00;98798.69;4451218;32;20101;-68
2023/07/14 01:12:59;;;;;;;5.12;3.10;;;;;;;18.86;100.00;98793.03;4438672;32;20435;-68
2023/07/14 01:15:26;;;;;;;8.73;3.37;;;;;;;18.83;100.00;98806.66;4435606;32;20124;-68
2023/07/14 01:17:54;;;;;;;4.40;3.30;;;;;;;18.77;100.00;98799.47;4435743;32;20176;-68
2023/07/14 01:20:21;;;;;;;4.40;3.00;;;;;;;18.74;100.00;98797.19;4435787;32;20081;-68
2023/07/14 01:23:21;;;;;;;4.72;3.00;;;;;;;18.63;100.00;98799.31;4435250;32;20435;-68
2023/07/14 01:26:02;;;;;;;7.10;3.40;;;;;;;18.61;100.00;98796.03;4435597;32;20113;-68
2023/07/14 01:28:29;;;;;;;5.32;3.50;;;;;;;18.58;100.00;98804.37;4435897;32;20149;-68
2023/07/14 01:30:56;;;;;;;8.32;3.58;;;;;;;18.53;100.00;98803.28;4422884;32;20094;-68
2023/07/14 01:33:24;;;;;;;7.07;3.35;;;;;;;18.43;100.00;98799.13;4435670;32;20112;-68
2023/07/14 01:35:53;;;;;;;5.82;4.12;;;;;;;18.44;100.00;98802.63;4476550;32;20096;-68
2023/07/14 01:38:21;;;;;;;6.35;3.75;;;;;;;18.37;100.00;98801.72;4483695;32;20088;-68
2023/07/14 01:40:49;;;;;;;5.75;3.55;;;;;;;18.21;100.00;98798.28;4483254;32;20106;-68
2023/07/14 01:43:18;;;;;;;5.53;3.83;;;;;;;18.27;100.00;98794.88;4483356;32;20501;-67
2023/07/14 01:45:50;;;;;;;7.20;4.03;;;;;;;18.24;100.00;98795.25;4484506;31;20688;-68
2023/07/14 01:48:21;;;;;;;5.97;4.47;;;;;;;18.26;100.00;98782.63;4483524;32;20096;-67
2023/07/14 01:50:53;;;;;;;11.00;4.55;;;;;;;18.20;100.00;98780.72;4483179;32;20141;-67
2023/07/14 01:53:28;;;;;;;6.85;4.55;;;;;;;18.29;100.00;98785.88;4483574;32;20155;-67
2023/07/14 01:55:59;;;;;;;7.70;4.25;;;;;;;18.24;100.00;98779.34;4484410;31;20088;-68
2023/07/14 01:58:31;;;;;;;5.80;4.03;;;;;;;18.27;100.00;98784.25;4484453;31;20092;-67
2023/07/14 02:00:58;;;;;;;9.40;3.80;;;;;;;18.28;100.00;98785.06;4483139;32;20418;-68
2023/07/14 02:03:37;;;;;;;6.47;3.85;;;;;;;18.26;100.00;98785.25;4483185;32;20493;-68
2023/07/14 02:06:05;;;;;;;4.62;3.47;;;;;;;18.31;100.00;98784.69;4484124;32;20103;-67
2023/07/14 02:08:33;;;;;;;5.82;3.42;;;;;;;18.32;100.00;98778.41;4483356;32;20119;-68
2023/07/14 02:11:02;;;;;;;6.47;3.42;;;;;;;18.32;100.00;98780.22;4484293;31;20089;-68
2023/07/14 02:13:33;;;;;;;4.65;3.35;;;;;;;18.29;100.00;98778.78;4483987;31;20446;-68
2023/07/14 02:16:01;;;;;;;6.05;3.28;;;;;;;18.35;100.00;98788.63;4482680;32;20113;-68
2023/07/14 02:18:29;;;;;;;9.13;3.25;;;;;;;18.32;100.00;98791.66;4483831;31;20100;-68
2023/07/14 02:20:58;;;;;;;4.70;3.83;;;;;;;18.30;100.00;98790.19;4483841;31;20114;-68
2023/07/14 02:23:27;;;;;;;6.70;3.72;;;;;;;18.35;100.00;98793.09;4482619;32;20112;-68
2023/07/14 02:26:07;;;;;;;9.30;3.67;;;;;;;18.43;100.00;98795.66;4482912;32;20115;-68
2023/07/14 02:28:34;;;;;;;7.95;3.53;;;;;;;18.49;100.00;98799.41;4483925;31;20088;-68
2023/07/14 02:31:25;;;;;;;6.32;4.15;;;;;;;18.45;100.00;98801.59;4483715;32;20089;-68
2023/07/14 02:33:53;;;;;;;5.10;3.10;;;;;;;18.48;100.00;98811.00;4483608;32;20793;-68
2023/07/14 02:37:02;;;;;;;8.77;3.92;;;;;;;18.40;100.00;98811.94;4486104;31;20442;-68
2023/07/14 02:39:36;;;;;;;5.32;3.97;;;;;;;18.34;100.00;98816.16;4436638;32;20180;-68
2023/07/14 02:42:04;;;;;;;8.80;4.03;;;;;;;18.31;100.00;98815.72;4436636;32;20089;-68
2023/07/14 02:44:37;;;;;;;10.10;4.70;;;;;;;18.34;100.00;98820.66;4437006;32;20175;-68
2023/07/14 02:47:11;;;;;;;9.77;4.45;;;;;;;18.30;100.00;98819.37;4436763;32;20131;-68
2023/07/14 02:49:39;;;;;;;6.55;4.40;;;;;;;18.31;100.00;98823.66;4436968;32;20172;-68
2023/07/14 02:52:06;;;;;;;5.85;3.85;;;;;;;18.26;100.00;98837.50;4436619;32;20113;-68
2023/07/14 02:54:33;;;;;;;6.53;4.03;;;;;;;18.25;100.00;98833.19;4436710;32;20106;-68
2023/07/14 02:57:00;;;;;;;9.20;4.18;;;;;;;18.17;100.00;98836.75;4436847;32;20506;-68
2023/07/14 02:59:27;;;;;;;7.97;3.70;;;;;;;18.16;100.00;98834.28;4436691;32;20105;-68
2023/07/14 03:01:55;;;;;;;7.22;4.10;;;;;;;18.15;100.00;98837.94;4436687;32;20089;-68
2023/07/14 03:04:23;;;;;;;10.95;4.97;;;;;;;18.09;100.00;98834.19;4436663;32;20113;-68
2023/07/14 03:06:51;;;;;;;6.78;4.10;;;;;;;18.13;100.00;98839.97;4436471;32;20105;-68
2023/07/14 03:09:19;;;;;;;5.45;4.03;;;;;;;18.09;100.00;98835.03;4436766;32;20197;-68
2023/07/14 03:11:46;;;;;;;6.25;3.80;;;;;;;18.15;100.00;98846.72;4436414;32;20112;-68
2023/07/14 03:14:13;;;;;;;5.85;3.90;;;;;;;18.18;100.00;98835.75;4477032;32;20497;-68
2023/07/14 03:16:40;;;;;;;6.87;3.87;;;;;;;18.26;100.00;98838.31;4486037;31;20087;-68
2023/07/14 03:19:08;;;;;;;5.35;3.90;;;;;;;18.26;100.00;98837.50;4485650;31;20115;-68
2023/07/14 03:21:36;;;;;;;6.97;3.37;;;;;;;18.24;100.00;98842.97;4485679;32;20408;-68
2023/07/14 03:24:03;;;;;;;6.35;4.05;;;;;;;18.34;100.00;98841.87;4485770;31;20737;-68
2023/07/14 03:26:31;;;;;;;7.70;3.60;;;;;;;18.35;100.00;98849.63;4485944;31;20088;-68
2023/07/14 03:28:58;;;;;;;6.62;3.05;;;;;;;18.38;100.00;98843.97;4485594;31;20104;-68
2023/07/14 03:31:26;;;;;;;3.92;3.30;;;;;;;18.50;100.00;98841.66;4485431;31;20496;-68
2023/07/14 03:33:53;;;;;;;5.70;3.80;;;;;;;18.51;100.00;98851.22;4485608;32;20502;-68
2023/07/14 03:36:23;;;;;;;5.82;3.28;;;;;;;18.52;100.00;98854.72;4485596;32;20083;-68
2023/07/14 03:39:21;;;;;;;10.48;3.87;;;;;;;18.56;100.00;98846.22;4485609;31;20119;-68
2023/07/14 03:41:50;;;;;;;6.05;3.33;;;;;;;18.59;100.00;98853.78;4485360;31;20092;-68
2023/07/14 03:44:18;;;;;;;5.62;3.35;;;;;;;18.71;100.00;98851.47;4485607;32;20093;-68
2023/07/14 03:46:45;;;;;;;7.15;3.60;;;;;;;18.66;100.00;98855.69;4485369;31;20096;-68
2023/07/14 03:49:14;;;;;;;4.68;3.58;;;;;;;18.73;100.00;98852.09;4485396;31;20123;-68
2023/07/14 03:51:42;;;;;;;8.40;3.30;;;;;;;18.74;100.00;98859.06;4485620;31;20092;-68
2023/07/14 03:54:10;;;;;;;5.65;3.35;;;;;;;18.85;100.00;98857.78;4485406;32;20450;-68
2023/07/14 03:56:38;;;;;;;5.93;3.30;;;;;;;18.85;100.00;98860.44;4485566;31;20100;-68
2023/07/14 03:59:07;;;;;;;8.68;2.83;;;;;;;18.89;100.00;98860.88;4485761;31;20106;-68
2023/07/14 04:01:37;;;;;;;11.07;3.10;;;;;;;18.95;100.00;98863.56;4485575;31;20099;-68
2023/07/14 04:04:06;;;;;;;4.90;3.20;;;;;;;19.14;100.00;98864.78;4485592;31;20088;-68
2023/07/14 04:06:33;;;;;;;4.37;2.70;;;;;;;19.09;100.00;98866.37;4484617;31;20088;-68
2023/07/14 04:09:01;;;;;;;6.97;3.28;;;;;;;19.16;100.00;98867.25;4484965;31;20166;-68
2023/07/14 04:11:33;;;;;;;5.10;3.00;;;;;;;19.26;100.00;98864.28;4483379;31;20154;-67
2023/07/14 04:14:02;;;;;;;6.75;3.08;;;;;;;19.20;100.00;98867.69;4483512;31;20142;-67
2023/07/14 04:16:29;;;;;;;5.72;3.10;;;;;;;19.27;100.00;98871.22;4483539;31;20593;-67
2023/07/14 04:18:57;;;;;;;5.62;2.72;;;;;;;19.24;100.00;98868.97;4483537;31;20111;-67
2023/07/14 04:21:24;;;;;;;4.07;3.05;;;;;;;19.34;100.00;98864.16;4483717;31;20478;-68
2023/07/14 04:23:52;;;;;;;4.25;2.90;;;;;;;19.40;100.00;98862.56;4483675;32;20556;-67
2023/07/14 04:26:23;;;;;;;5.95;2.90;;;;;;;19.48;100.00;98873.03;4483584;32;20084;-67
2023/07/14 04:28:52;;;;;;;4.75;2.83;;;;;;;19.60;100.00;98866.19;4483911;31;20565;-67
2023/07/14 04:31:19;;;;;;;5.35;3.20;;;;;;;19.66;100.00;98873.37;4483559;31;20424;-68
2023/07/14 04:33:48;;;;;;;7.00;3.53;;;;;;;19.76;100.00;98882.88;4483755;32;20093;-68
2023/07/14 04:36:16;;;;;;;5.30;3.42;;;;;;;19.76;100.00;98875.72;4483026;32;20133;-68
2023/07/14 04:39:09;;;;;;;3.95;2.90;;;;;;;19.91;100.00;98885.44;4483132;31;20432;-68
2023/07/14 04:41:36;;;;;;;4.57;3.47;;;;;;;20.17;100.00;98879.47;4475742;32;20111;-68
2023/07/14 04:44:09;;;;;;;5.80;3.47;;;;;;;20.25;100.00;98886.47;4483190;31;20611;-68
2023/07/14 04:46:37;;;;;;;9.48;4.45;;;;;;;20.34;100.00;98886.09;4483157;32;20089;-68
2023/07/14 04:49:06;;;;;;;5.35;3.55;;;;;;;20.60;100.00;98895.22;4483936;31;20096;-68
2023/07/14 04:51:33;;;;;;;7.47;3.42;;;;;;;20.72;100.00;98900.81;4484831;31;20458;-68
2023/07/14 04:54:01;;;;;;;4.32;3.10;;;;;;;20.86;100.00;98907.84;4484539;31;20716;-68
2023/07/14 04:56:35;;;;;;;5.97;3.12;;;;;;;20.89;100.00;98912.78;4483766;31;20119;-68
2023/07/14 04:59:04;;;;;;;5.28;3.67;;;;;;;21.09;100.00;98915.47;4484241;31;20521;-68
2023/07/14 05:01:32;;;;;;;6.93;3.03;;;;;;;21.16;100.00;98928.00;4483135;31;20076;-69
2023/07/14 05:04:00;;;;;;;6.60;3.58;;;;;;;21.09;100.00;98928.00;4482672;31;20092;-68
2023/07/14 05:06:29;;;;;;;4.80;3.53;;;;;;;21.18;100.00;98932.09;4483876;31;21168;-67
2023/07/14 05:08:58;;;;;;;6.43;3.60;;;;;;;21.41;100.00;98939.72;4484041;31;20100;-68
2023/07/14 05:11:27;;;;;;;6.00;3.83;;;;;;;21.36;100.00;98939.50;4484238;31;20116;-68
2023/07/14 05:13:55;;;;;;;6.47;3.65;;;;;;;21.44;100.00;98949.97;4484412;31;20603;-68
2023/07/14 05:16:22;;;;;;;5.25;3.40;;;;;;;21.46;100.00;98944.44;4484586;31;20147;-68
2023/07/14 05:18:49;;;;;;;9.07;3.20;;;;;;;21.50;100.00;98942.19;4484856;31;20113;-68
2023/07/14 05:21:18;;;;;;;6.12;3.25;;;;;;;21.71;100.00;98944.69;4484448;31;20100;-68
2023/07/14 05:23:45;;;;;;;5.82;4.10;;;;;;;21.98;100.00;98952.66;4484679;31;20135;-68
2023/07/14 05:26:13;;;;;;;4.97;3.30;;;;;;;22.26;100.00;98954.28;4484989;31;20104;-68
2023/07/14 05:28:41;;;;;;;5.90;3.33;;;;;;;22.47;100.00;98953.25;4484508;32;20178;-68
2023/07/14 05:31:09;;;;;;;8.38;3.50;;;;;;;22.70;100.00;98957.28;4484733;31;20168;-68
2023/07/14 05:33:39;;;;;;;4.50;3.28;;;;;;;22.86;100.00;98957.59;4483816;31;20145;-67
2023/07/14 05:36:07;;;;;;;5.78;3.15;;;;;;;22.94;100.00;98953.06;4484185;31;20517;-68
2023/07/14 05:38:35;;;;;;;5.10;2.92;;;;;;;23.08;100.00;98959.97;4486215;31;20088;-68
2023/07/14 05:41:04;;;;;;;6.47;3.75;;;;;;;22.87;100.00;98953.88;4493050;31;20096;-68
2023/07/14 05:43:32;;;;;;;7.10;3.65;;;;;;;23.00;100.00;98958.38;4483547;31;20188;-68
2023/07/14 05:45:59;;;;;;;5.55;3.60;;;;;;;23.15;100.00;98960.78;4484089;31;20557;-68
2023/07/14 05:48:27;;;;;;;7.05;3.05;;;;;;;23.15;100.00;98963.47;4484082;31;20606;-68
2023/07/14 05:50:54;;;;;;;6.18;3.58;;;;;;;22.93;100.00;98967.44;4479625;31;20101;-68
2023/07/14 05:53:25;;;;;;;5.18;3.42;;;;;;;23.04;100.00;98964.09;4481153;31;20101;-68
2023/07/14 05:55:52;;;;;;;5.10;3.78;;;;;;;23.16;100.00;98965.06;4479837;31;20096;-68
2023/07/14 05:58:19;;;;;;;6.57;3.70;;;;;;;23.41;100.00;98964.31;4483857;31;20147;-68
2023/07/14 06:00:48;;;;;;;6.97;3.60;;;;;;;23.59;99.39;98965.44;4483146;31;20104;-68
2023/07/14 06:03:16;;;;;;;8.52;4.28;;;;;;;23.50;97.10;98965.69;4483767;31;20202;-68
2023/07/14 06:05:46;;;;;;;6.68;3.28;;;;;;;23.44;97.61;98971.91;4485054;31;20092;-68
2023/07/14 06:08:14;;;;;;;4.53;3.25;;;;;;;23.67;98.37;98971.34;4481191;31;20465;-68
2023/07/14 06:10:46;;;;;;;7.00;3.62;;;;;;;23.86;95.51;98977.59;4484289;31;20173;-68
2023/07/14 06:13:13;;;;;;;6.40;3.12;;;;;;;24.09;97.14;98968.97;4485748;31;20104;-68
2023/07/14 06:15:46;;;;;;;6.75;3.60;;;;;;;24.19;95.93;98964.94;4485884;31;20096;-68
2023/07/14 06:18:14;;;;;;;4.65;3.40;;;;;;;24.20;93.41;98969.28;4485388;31;20079;-68
2023/07/14 06:20:41;;;;;;;5.90;3.12;;;;;;;24.38;94.58;98974.66;4487708;31;20126;-68
2023/07/14 06:23:08;;;;;;;5.43;3.20;;;;;;;24.52;95.44;98972.63;4486051;31;20122;-68
2023/07/14 06:25:39;;;;;;;5.18;3.67;;;;;;;24.70;93.02;98979.87;4485508;31;20092;-68
2023/07/14 06:28:07;;;;;;;4.20;3.17;;;;;;;24.86;94.38;98983.84;4487674;31;20092;-68
2023/07/14 06:30:35;;;;;;;6.15;3.53;;;;;;;24.74;89.50;98983.75;4484973;31;20782;-68
2023/07/14 06:33:03;;;;;;;6.00;3.12;;;;;;;24.66;85.91;98980.56;4485631;31;20092;-68
2023/07/14 06:35:35;;;;;;;6.35;3.10;;;;;;;24.55;84.56;98979.41;4486278;31;20096;-68
2023/07/14 06:38:03;;;;;;;4.35;3.35;;;;;;;24.49;85.38;98986.47;4485785;31;20152;-68
2023/07/14 06:40:31;;;;;;;4.82;3.08;;;;;;;24.25;86.07;98985.47;4485840;31;20088;-68
2023/07/14 06:43:00;;;;;;;8.20;3.22;;;;;;;24.22;87.92;98986.72;4480017;31;20112;-68
2023/07/14 06:45:30;;;;;;;5.20;3.42;;;;;;;24.71;88.43;98996.78;4485737;31;20436;-68
2023/07/14 06:47:58;;;;;;;6.93;3.00;;;;;;;24.96;86.22;98991.31;4485656;31;20097;-68
2023/07/14 06:50:26;;;;;;;4.07;2.90;;;;;;;24.85;83.20;98998.25;4485736;32;20096;-68
2023/07/14 06:52:55;;;;;;;7.93;3.65;;;;;;;24.75;83.62;98996.09;4485820;31;20115;-68
2023/07/14 06:55:22;;;;;;;5.10;3.90;;;;;;;24.97;89.19;98993.78;4485568;31;20152;-67
2023/07/14 06:57:50;;;;;;;6.55;4.65;;;;;;;24.89;94.94;98988.75;4487439;31;20096;-68
2023/07/14 07:00:20;;;;;;;5.62;3.42;;;;;;;25.15;93.00;98986.75;4470518;31;20639;-68
2023/07/14 07:02:48;;;;;;;5.75;3.33;;;;;;;25.40;91.00;98985.81;4485812;31;20807;-68
2023/07/14 07:05:20;;;;;;;7.45;3.87;;;;;;;25.40;86.88;98988.50;4485414;32;20112;-68
2023/07/14 07:07:50;;;;;;;12.93;3.97;;;;;;;25.43;84.74;98990.72;4485326;31;20161;-68
2023/07/14 07:10:17;;;;;;;4.57;3.67;;;;;;;25.47;90.95;98991.91;4485932;31;20092;-68
2023/07/14 07:12:44;;;;;;;5.22;3.60;;;;;;;25.67;89.04;98997.78;4486093;31;20119;-68
2023/07/14 07:15:11;;;;;;;6.47;3.80;;;;;;;25.72;88.68;98994.41;4485471;31;20161;-68
2023/07/14 07:17:42;;;;;;;6.90;3.55;;;;;;;25.86;90.81;99000.41;4487323;31;20492;-68
2023/07/14 07:20:10;;;;;;;6.22;3.72;;;;;;;25.88;86.98;99000.97;4490131;31;20151;-68
2023/07/14 07:22:39;;;;;;;7.85;3.42;;;;;;;25.97;83.58;99007.63;4470019;32;20437;-68
2023/07/14 07:25:07;;;;;;;6.18;3.60;;;;;;;26.08;84.34;99008.72;4476954;31;20157;-68
2023/07/14 07:27:36;;;;;;;8.25;4.15;;;;;;;26.42;84.29;99002.75;4489351;31;20115;-68
2023/07/14 07:30:05;;;;;;;7.60;3.55;;;;;;;26.03;82.33;99003.25;4486117;31;20063;-68
2023/07/14 07:32:33;;;;;;;6.78;4.10;;;;;;;26.10;83.20;99005.81;4485156;31;20122;-68
2023/07/14 07:35:03;;;;;;;5.35;3.92;;;;;;;25.94;86.49;98997.38;4488196;31;20100;-68
2023/07/14 07:37:34;;;;;;;6.43;3.90;;;;;;;26.09;84.29;99006.88;4486918;31;20097;-68
2023/07/14 07:40:08;;;;;;;7.97;4.30;;;;;;;26.06;85.08;99005.47;4486395;31;20084;-68
2023/07/14 07:42:35;;;;;;;7.47;4.45;;;;;;;26.38;84.86;99007.78;4484965;31;20091;-68
2023/07/14 07:45:03;;;;;;;7.05;4.12;;;;;;;26.49;83.35;99008.84;4483875;31;20508;-68
2023/07/14 07:47:31;;;;;;;9.60;3.95;;;;;;;26.53;84.02;99005.44;4484951;31;20088;-68
2023/07/14 07:49:58;;;;;;;7.47;4.25;;;;;;;26.65;84.00;99010.81;4485045;31;20135;-68
2023/07/14 07:52:25;;;;;;;6.80;3.87;;;;;;;26.50;81.30;99005.09;4485017;31;20100;-68
2023/07/14 07:54:53;;;;;;;7.72;3.55;;;;;;;26.51;80.54;99006.72;4480165;31;20159;-68
2023/07/14 07:57:21;;;;;;;5.15;3.60;;;;;;;26.55;79.57;99003.31;4469570;32;20101;-68
2023/07/14 07:59:49;;;;;;;5.85;3.42;;;;;;;26.47;80.10;98997.53;4477154;32;20175;-68
2023/07/14 08:02:16;;;;;;;5.05;4.05;;;;;;;26.23;77.50;98999.41;4480417;31;20116;-68
2023/07/14 08:04:44;;;;;;;5.72;3.75;;;;;;;26.43;80.43;98999.03;4484552;31;20107;-68
2023/07/14 08:07:12;;;;;;;6.57;3.87;;;;;;;26.69;78.84;98997.72;4484339;31;20137;-68
2023/07/14 08:09:40;;;;;;;10.00;3.97;;;;;;;26.60;78.53;99005.28;4484996;31;20093;-68
2023/07/14 08:12:08;;;;;;;7.00;3.78;;;;;;;26.42;80.68;99002.75;4486225;31;20127;-68
2023/07/14 08:14:56;;;;;;;6.55;4.18;;;;;;;26.63;80.79;99004.03;4485190;31;20100;-68
2023/07/14 08:17:26;;;;;;;6.30;4.15;;;;;;;26.95;79.38;98995.56;4487862;31;20433;-69
2023/07/14 08:19:53;;;;;;;7.85;4.25;;;;;;;27.00;77.19;98999.16;4487581;31;20076;-68
2023/07/14 08:22:21;;;;;;;7.97;3.53;;;;;;;26.82;77.32;98996.66;4483671;31;20123;-68
2023/07/14 08:24:51;;;;;;;5.60;4.07;;;;;;;27.08;78.27;98996.09;4483331;31;20115;-68
2023/07/14 08:27:19;;;;;;;8.50;4.20;;;;;;;27.41;78.80;98994.56;4482894;31;20454;-69
2023/07/14 08:29:46;;;;;;;5.75;4.28;;;;;;;27.53;78.94;98991.03;4482500;31;20131;-69
2023/07/14 08:32:15;;;;;;;6.12;3.62;;;;;;;27.60;73.27;98987.13;4482896;31;20100;-68
2023/07/14 08:34:43;;;;;;;4.25;3.78;;;;;;;27.16;74.13;98996.78;4487867;31;20119;-68
2023/07/14 08:37:10;;;;;;;6.25;4.07;;;;;;;26.91;74.05;99000.59;4482542;31;20215;-68
2023/07/14 08:39:38;;;;;;;4.60;3.47;;;;;;;26.86;74.07;98997.78;4472283;31;20232;-68
2023/07/14 08:42:42;;;;;;;7.37;4.53;;;;;;;27.25;72.87;98992.63;4485515;31;20100;-68
2023/07/14 08:45:18;;;;;;;7.65;3.20;;;;;;;27.35;73.46;98994.75;4485909;31;20497;-67
2023/07/14 08:47:56;;;;;;;4.53;3.42;;;;;;;26.87;69.79;99004.81;4483223;31;20108;-68
2023/07/14 08:50:26;;;;;;;4.68;2.92;;;;;;;27.17;67.01;99001.91;4476415;31;20176;-68
2023/07/14 08:52:56;;;;;;;6.95;2.90;;;;;;;27.54;63.96;98996.16;4482777;31;20118;-68
2023/07/14 08:55:26;;;;;;;6.82;2.60;;;;;;;27.73;62.49;99002.13;4484940;31;20126;-68
2023/07/14 08:58:04;;;;;;;10.52;2.78;;;;;;;27.99;60.06;99009.84;4487985;31;20083;-68
2023/07/14 09:00:49;;;;;;;5.53;2.80;;;;;;;28.26;59.01;99004.59;4485448;31;20155;-68
2023/07/14 09:03:40;;;;;;;6.03;2.85;;;;;;;28.13;56.83;99003.03;4484052;31;20477;-68
2023/07/14 09:06:23;;;;;;;4.93;2.72;;;;;;;27.66;57.34;99001.47;4483215;31;20128;-68
2023/07/14 09:08:51;;;;;;;3.33;2.45;;;;;;;27.67;56.29;99008.47;4467541;31;20099;-68
2023/07/14 09:11:28;;;;;;;3.70;2.75;;;;;;;27.82;59.00;99009.81;4475631;32;20584;-68
2023/07/14 09:14:14;;;;;;;4.62;2.50;;;;;;;27.98;58.26;99011.72;4473899;32;20126;-68
2023/07/14 09:17:11;;;;;;;3.35;2.90;;;;;;;28.21;57.47;99018.00;4488478;31;20501;-68
2023/07/14 09:20:20;;;;;;;3.65;2.83;;;;;;;28.26;54.22;99009.97;4483093;31;20131;-68
2023/07/14 09:23:14;;;;;;;3.42;2.40;;;;;;;28.31;54.35;99015.41;4484758;31;20452;-68
2023/07/14 09:25:48;;;;;;;2.25;2.00;;;;;;;28.48;52.05;99018.91;4478698;31;20132;-68
2023/07/14 09:28:28;;;;;;;4.22;2.10;;;;;;;28.37;51.69;99017.13;4475920;31;21826;-68
2023/07/14 09:31:00;;;;;;;7.07;2.22;;;;;;;28.29;51.65;99015.66;4483124;31;20126;-68
2023/07/14 09:33:30;;;;;;;3.37;2.05;;;;;;;28.21;49.48;99012.59;4473903;31;20429;-68
2023/07/14 09:35:58;;;;;;;3.15;2.28;;;;;;;28.22;50.41;99014.22;4483072;31;20843;-67
2023/07/14 09:38:40;;;;;;;5.65;2.60;;;;;;;28.56;49.87;99016.84;4483047;31;20126;-67
2023/07/14 09:41:14;;;;;;;2.97;2.08;;;;;;;28.49;50.44;99000.84;4480863;32;20100;-67
2023/07/14 09:43:43;;;;;;;2.80;2.17;;;;;;;27.87;47.56;99004.50;4481230;31;20116;-67
2023/07/14 09:46:17;;;;;;;4.65;2.12;;;;;;;28.20;50.50;99010.97;4479887;31;20956;-67
2023/07/14 09:48:49;;;;;;;3.62;2.25;;;;;;;28.22;52.00;99003.44;4476145;32;20246;-67
2023/07/14 09:51:21;;;;;;;5.97;2.15;;;;;;;28.44;48.95;99001.59;4475047;31;20197;-67
2023/07/14 09:53:58;;;;;;;2.50;2.30;;;;;;;28.75;51.02;99001.22;4487730;31;20373;-67
2023/07/14 09:56:30;;;;;;;8.00;2.30;;;;;;;29.15;48.70;99003.56;4485020;31;20167;-67
2023/07/14 09:59:07;;;;;;;6.87;2.45;;;;;;;29.53;47.72;98999.12;4467618;31;20127;-67
2023/07/14 10:01:49;;;;;;;3.05;2.20;;;;;;;29.62;48.35;98998.66;4470241;31;20125;-67
2023/07/14 10:04:17;;;;;;;3.28;2.45;;;;;;;29.41;46.40;98997.66;4483016;31;20594;-67
2023/07/14 10:06:47;;;;;;;3.22;2.30;;;;;;;28.88;48.40;99005.44;4481372;31;20122;-67
2023/07/14 10:09:16;;;;;;;2.35;1.87;;;;;;;28.77;46.66;98999.91;4481358;31;20100;-67
2023/07/14 10:11:49;;;;;;;2.60;2.28;;;;;;;29.12;46.33;98989.78;4483850;31;20117;-67
2023/07/14 10:14:35;;;;;;;3.70;2.33;;;;;;;28.95;44.15;99004.16;4481113;31;20115;-67
2023/07/14 10:17:04;;;;;;;5.87;2.58;;;;;;;29.30;47.67;98994.06;4482881;31;20478;-67
2023/07/14 10:19:36;;;;;;;2.40;2.03;;;;;;;29.14;48.33;98991.12;4489711;31;20087;-67
2023/07/14 10:22:11;;;;;;;2.65;2.17;;;;;;;29.27;46.14;98997.25;4470754;31;20578;-67
2023/07/14 10:24:38;;;;;;;3.33;2.08;;;;;;;29.46;46.17;98986.91;4481819;31;20399;-68
2023/07/14 10:27:18;;;;;;;5.47;2.40;;;;;;;29.70;41.56;98987.37;4481973;31;20155;-68
2023/07/14 10:29:48;;;;;;;2.78;2.30;;;;;;;29.78;41.24;98980.69;4482705;31;20100;-67
2023/07/14 10:32:46;;;;;;;5.78;2.33;;;;;;;29.91;40.20;98985.69;4478812;31;20458;-68
2023/07/14 10:35:39;;;;;;;3.12;2.33;;;;;;;30.22;42.54;98980.47;4472340;31;20110;-69
2023/07/14 10:38:12;;;;;;;;;;;;;;;30.49;45.64;98979.56;4477263;31;20123;-68
2023/07/14 10:40:47;;;;;;;2.90;2.20;;;;;;;30.35;41.09;98977.31;4471587;31;20006;-68
2023/07/14 10:43:22;;;;;;;4.93;2.55;;;;;;;30.28;40.40;98974.03;4479280;31;20084;-68
2023/07/14 10:45:56;;;;;;;6.15;2.78;;;;;;;30.20;41.63;98967.22;4482470;31;20156;-68
2023/07/14 10:48:29;;;;;;;3.90;2.45;;;;;;;30.25;43.50;98972.69;4481424;31;20093;-69
2023/07/14 10:51:27;;;;;;;3.78;2.62;;;;;;;30.57;44.43;98977.19;4476451;31;21113;-69
2023/07/14 10:53:58;;;;;;;2.83;2.47;;;;;;;30.61;42.73;98972.87;4466464;32;20502;-69
2023/07/14 10:56:36;;;;;;;6.72;2.90;;;;;;;30.73;41.06;98963.72;4481826;32;20503;-69
2023/07/14 10:59:15;;;;;;;4.25;3.00;;;;;;;30.81;44.77;98962.41;4484112;31;20164;-69
2023/07/14 11:02:25;;;;;;;4.15;2.87;;;;;;;30.42;47.86;98960.91;4496670;31;20164;-69
2023/07/14 11:05:05;;;;;;;10.35;3.10;;;;;;;30.23;47.21;98952.38;4481502;31;20108;-70
2023/07/14 11:07:34;;;;;;;3.45;2.90;;;;;;;30.14;48.00;98962.88;4468985;32;20480;-70
2023/07/14 11:10:06;;;;;;;3.03;2.62;;;;;;;30.35;43.77;98952.97;4474455;32;20096;-69
2023/07/14 11:12:46;;;;;;;5.35;3.03;;;;;;;30.47;43.18;98944.69;4482245;32;20127;-69
2023/07/14 11:15:19;;;;;;;5.47;3.10;;;;;;;30.96;45.28;98949.75;4482061;31;20497;-70
2023/07/14 11:18:23;;;;;;;3.17;2.87;;;;;;;30.96;45.91;98955.16;4486115;31;20117;-70
2023/07/14 11:21:18;;;;;;;6.03;2.67;;;;;;;30.57;48.36;98946.66;4480718;31;20126;-69
2023/07/14 11:24:06;;;;;;;3.30;3.00;;;;;;;30.45;45.30;98949.56;4475790;32;20127;-70
2023/07/14 11:26:43;;;;;;;7.55;3.70;;;;;;;30.97;47.34;98950.53;4468945;32;20364;-70
2023/07/14 11:29:16;;;;;;;6.47;3.33;;;;;;;31.12;46.99;98944.38;4469007;31;20146;-69
2023/07/14 11:31:49;;;;;;;5.07;2.97;;;;;;;31.09;45.59;98942.22;4485402;31;20138;-69
2023/07/14 11:34:28;;;;;;;5.50;3.62;;;;;;;30.38;46.46;98946.25;4470860;32;20539;-69
2023/07/14 11:37:05;;;;;;;6.97;3.30;;;;;;;30.46;47.52;98943.06;4471092;31;20457;-68
2023/07/14 11:39:53;;;;;;;3.53;2.83;;;;;;;30.55;45.34;98943.38;4487870;31;20115;-69
2023/07/14 11:42:25;;;;;;;7.05;3.22;;;;;;;30.94;45.16;98932.13;4476281;32;20109;-68
2023/07/14 11:44:53;;;;;;;5.60;3.50;;;;;;;31.65;49.33;98933.34;4478233;31;20112;-69
2023/07/14 11:47:31;;;;;;;6.47;2.87;;;;;;;31.51;45.79;98935.75;4485537;31;20142;-69
2023/07/14 11:50:02;;;;;;;5.55;3.20;;;;;;;32.01;46.82;98933.28;4479618;31;20107;-69
2023/07/14 11:52:31;;;;;;;6.20;3.20;;;;;;;32.11;45.08;98932.47;4482995;31;20101;-69